createdAt,value
2023-01-26T00:03:52.728Z,1.61
2023-01-26T00:08:56.499Z,1.75
2023-01-26T00:13:59.789Z,1.71
2023-01-26T00:19:01.601Z,1.43
2023-01-26T00:24:04.730Z,1.61
2023-01-26T00:29:06.458Z,1.70
2023-01-26T00:34:08.090Z,1.83
2023-01-26T00:39:09.694Z,1.84
2023-01-26T00:44:11.366Z,1.91
2023-01-26T00:49:12.980Z,1.81
2023-01-26T00:54:14.683Z,1.71
2023-01-26T00:59:16.303Z,1.67
2023-01-26T01:04:21.495Z,1.64
2023-01-26T01:09:23.443Z,1.54
2023-01-26T01:14:25.125Z,1.67
2023-01-26T01:19:27.446Z,1.50
2023-01-26T01:24:29.095Z,1.56
2023-01-26T01:29:30.713Z,1.72
2023-01-26T01:34:32.901Z,1.47
2023-01-26T01:39:34.535Z,1.56
2023-01-26T01:44:38.147Z,1.30
2023-01-26T01:49:50.762Z,1.24
2023-01-26T01:55:08.413Z,1.22
2023-01-26T02:00:13.083Z,1.42
2023-01-26T02:05:26.836Z,1.57
2023-01-26T02:10:30.148Z,1.41
2023-01-26T02:15:32.098Z,1.55
2023-01-26T02:20:39.863Z,1.41
2023-01-26T02:25:52.091Z,1.44
2023-01-26T02:30:55.940Z,1.26
2023-01-26T02:35:58.670Z,1.22
2023-01-26T02:41:05.905Z,1.35
2023-01-26T02:46:07.652Z,1.37
2023-01-26T02:51:13.061Z,1.48
2023-01-26T02:56:14.791Z,1.69
2023-01-26T03:01:16.489Z,1.50
2023-01-26T03:06:22.253Z,1.50
2023-01-26T03:11:24.499Z,1.39
2023-01-26T03:16:26.154Z,1.36
2023-01-26T03:21:46.469Z,1.40
2023-01-26T03:27:06.910Z,1.41
2023-01-26T03:32:08.871Z,1.53
2023-01-26T03:37:12.623Z,1.22
2023-01-26T03:42:46.226Z,1.20
2023-01-26T03:48:07.678Z,1.29
2023-01-26T03:53:38.753Z,1.32
2023-01-26T03:58:57.391Z,1.33
2023-01-26T04:04:21.196Z,1.51
2023-01-26T04:09:23.783Z,1.41
2023-01-26T04:14:49.412Z,1.41
2023-01-26T04:20:13.577Z,1.34
2023-01-26T04:25:19.302Z,1.20
2023-01-26T04:30:21.276Z,1.14
2023-01-26T04:35:23.554Z,1.00
2023-01-26T04:40:25.273Z,1.32
2023-01-26T04:45:26.991Z,1.14
2023-01-26T04:50:28.911Z,1.41
2023-01-26T04:55:30.572Z,1.30
2023-01-26T05:00:33.498Z,1.23
2023-01-26T05:05:40.180Z,1.15
2023-01-26T05:10:42.942Z,1.27
2023-01-26T05:15:57.603Z,1.20
2023-01-26T05:21:13.128Z,1.10
2023-01-26T05:26:19.709Z,1.13
2023-01-26T05:31:41.601Z,0.86
2023-01-26T05:36:44.409Z,0.80
2023-01-26T05:41:46.053Z,0.73
2023-01-26T05:46:53.357Z,1.04
2023-01-26T05:51:55.315Z,0.93
2023-01-26T05:56:58.177Z,1.00
2023-01-26T06:02:02.166Z,1.08
2023-01-26T06:07:04.373Z,1.00
2023-01-26T06:12:15.618Z,0.87
2023-01-26T06:17:32.467Z,1.07
2023-01-26T06:22:37.098Z,0.97
2023-01-26T06:27:42.273Z,1.08
2023-01-26T06:32:59.784Z,1.11
2023-01-26T06:38:01.921Z,1.30
2023-01-26T06:43:03.567Z,1.17
2023-01-26T06:48:07.219Z,1.16
2023-01-26T06:53:33.712Z,1.09
2023-01-26T06:58:56.140Z,1.16
2023-01-26T07:04:17.155Z,1.36
2023-01-26T07:09:18.750Z,1.28
2023-01-26T07:14:20.337Z,1.26
2023-01-26T07:19:22.512Z,1.28
2023-01-26T07:24:24.990Z,1.27
2023-01-26T07:29:26.675Z,1.28
2023-01-26T07:34:28.276Z,1.29
2023-01-26T07:39:29.894Z,1.35
2023-01-26T07:44:31.540Z,1.16
2023-01-26T07:49:33.779Z,1.34
2023-01-26T07:54:35.499Z,1.45
2023-01-26T07:59:37.126Z,1.47
2023-01-26T08:04:38.736Z,1.47
2023-01-26T08:09:40.352Z,1.44
2023-01-26T08:14:47.097Z,1.53
2023-01-26T08:19:48.960Z,1.62
2023-01-26T08:24:50.552Z,1.60
2023-01-26T08:29:52.183Z,1.53
2023-01-26T08:34:53.741Z,1.58
2023-01-26T08:39:55.347Z,1.37
2023-01-26T08:44:56.971Z,1.51
2023-01-26T08:49:58.562Z,1.61
2023-01-26T08:55:01.001Z,1.41
2023-01-26T09:00:03.484Z,1.38
2023-01-26T09:05:05.520Z,1.42
2023-01-26T09:10:08.198Z,1.33
2023-01-26T09:15:10.523Z,1.33
2023-01-26T09:20:12.985Z,1.12
2023-01-26T09:25:15.293Z,1.41
2023-01-26T09:30:17.585Z,1.30
2023-01-26T09:35:19.549Z,1.38
2023-01-26T09:40:49.801Z,1.45
2023-01-26T09:46:01.876Z,1.40
2023-01-26T09:51:20.533Z,1.51
2023-01-26T09:56:25.589Z,1.32
2023-01-26T10:01:36.850Z,1.35
2023-01-26T10:06:38.978Z,1.42
2023-01-26T10:11:58.423Z,1.47
2023-01-26T10:17:01.181Z,1.32
2023-01-26T10:22:11.360Z,1.37
2023-01-26T10:27:15.930Z,1.13
2023-01-26T10:32:18.279Z,1.24
2023-01-26T10:37:23.681Z,1.38
2023-01-26T10:42:29.106Z,1.24
2023-01-26T10:47:31.060Z,1.01
2023-01-26T10:52:32.669Z,1.36
2023-01-26T10:57:39.019Z,1.56
2023-01-26T11:02:50.502Z,1.27
2023-01-26T11:08:00.563Z,1.14
2023-01-26T11:13:20.148Z,1.23
2023-01-26T11:18:51.820Z,1.33
2023-01-26T11:24:23.943Z,1.74
2023-01-26T11:29:46.569Z,1.79
2023-01-26T11:35:03.144Z,1.87
2023-01-26T11:40:26.530Z,1.94
2023-01-26T11:45:46.158Z,1.56
2023-01-26T11:51:29.775Z,1.52
2023-01-26T11:56:56.155Z,1.10
2023-01-26T12:02:00.841Z,1.16
2023-01-26T12:07:20.271Z,1.12
2023-01-26T12:12:35.573Z,1.14
2023-01-26T12:18:01.466Z,1.06
2023-01-26T12:23:03.083Z,1.36
2023-01-26T12:28:27.631Z,1.25
2023-01-26T12:33:31.245Z,1.55
2023-01-26T12:39:08.817Z,1.22
2023-01-26T12:44:39.112Z,1.45
2023-01-26T12:49:51.487Z,1.26
2023-01-26T12:55:04.983Z,1.35
2023-01-26T13:00:19.500Z,1.17
2023-01-26T13:05:28.417Z,1.31
2023-01-26T13:10:44.844Z,0.90
2023-01-26T13:15:46.945Z,0.94
2023-01-26T13:20:49.882Z,0.99
2023-01-26T13:26:11.499Z,1.15
2023-01-26T13:31:13.519Z,1.31
2023-01-26T13:36:19.327Z,1.33
2023-01-26T13:41:22.192Z,1.13
2023-01-26T13:46:47.272Z,1.06
2023-01-26T13:51:48.954Z,0.97
2023-01-26T13:57:05.369Z,0.98
2023-01-26T14:02:11.904Z,0.85
2023-01-26T14:07:17.872Z,0.67
2023-01-26T14:12:30.943Z,0.78
2023-01-26T14:17:36.693Z,0.61
2023-01-26T14:22:38.720Z,0.72
2023-01-26T14:27:42.311Z,0.57
2023-01-26T14:32:43.931Z,0.44
2023-01-26T14:37:45.590Z,0.71
2023-01-26T14:42:50.164Z,0.85
2023-01-26T14:47:52.715Z,0.73
2023-01-26T14:52:54.590Z,0.55
2023-01-26T14:57:58.327Z,0.51
2023-01-26T15:03:04.560Z,0.59
2023-01-26T15:08:20.100Z,0.79
2023-01-26T15:13:23.905Z,0.59
2023-01-26T15:18:31.450Z,0.48
2023-01-26T15:23:35.970Z,0.36
2023-01-26T15:28:38.672Z,0.42
2023-01-26T15:33:49.772Z,0.39
2023-01-26T15:39:00.848Z,0.55
2023-01-26T15:44:02.504Z,0.64
2023-01-26T15:49:04.109Z,0.50
2023-01-26T15:54:05.806Z,0.44
2023-01-26T15:59:07.420Z,0.31
2023-01-26T16:04:13.434Z,0.41
2023-01-26T16:09:15.052Z,0.43
2023-01-26T16:14:16.723Z,0.35
2023-01-26T16:19:33.697Z,0.26
2023-01-26T16:24:37.123Z,0.31
2023-01-26T16:29:38.759Z,0.06
2023-01-26T16:34:40.374Z,0.21
2023-01-26T16:39:41.978Z,0.33
2023-01-26T16:44:43.631Z,0.27
2023-01-26T16:49:45.620Z,0.27
2023-01-26T16:54:48.366Z,0.04
2023-01-26T16:59:49.977Z,0.05
2023-01-26T17:04:52.224Z,-0.08
2023-01-26T17:09:53.863Z,0.07
2023-01-26T17:14:55.514Z,0.16
2023-01-26T17:20:01.498Z,0.06
2023-01-26T17:25:11.222Z,-0.10
2023-01-26T17:30:13.687Z,-0.15
2023-01-26T17:35:15.423Z,0.04
2023-01-26T17:40:17.112Z,-0.04
2023-01-26T17:45:18.726Z,-0.06
2023-01-26T17:50:20.709Z,-0.25
2023-01-26T17:55:22.341Z,-0.36
2023-01-26T18:00:23.946Z,-0.30
2023-01-26T18:05:25.532Z,-0.26
2023-01-26T18:10:30.464Z,-0.27
2023-01-26T18:15:32.088Z,-0.38
2023-01-26T18:20:33.890Z,-0.43
2023-01-26T18:25:36.564Z,-0.15
2023-01-26T18:30:38.487Z,-0.38
2023-01-26T18:35:40.627Z,-0.19
2023-01-26T18:40:42.248Z,-0.07
2023-01-26T18:45:43.913Z,-0.30
2023-01-26T18:50:49.560Z,-0.30
2023-01-26T18:55:55.265Z,-0.23
2023-01-26T19:00:57.043Z,-0.40
2023-01-26T19:06:03.173Z,-0.51
2023-01-26T19:11:06.641Z,-0.34
2023-01-26T19:16:09.032Z,-0.55
2023-01-26T19:21:10.753Z,-0.46
2023-01-26T19:26:15.146Z,-0.38
2023-01-26T19:31:19.417Z,-0.42
2023-01-26T19:36:22.557Z,-0.52
2023-01-26T19:41:24.829Z,-0.40
2023-01-26T19:46:26.807Z,-0.57
2023-01-26T19:51:29.404Z,-0.15
2023-01-26T19:56:35.117Z,-0.25
2023-01-26T20:01:36.789Z,-0.04
2023-01-26T20:06:38.912Z,-0.10
2023-01-26T20:11:40.617Z,-0.37
2023-01-26T20:16:42.451Z,-0.32
2023-01-26T20:21:44.862Z,-0.41
2023-01-26T20:26:47.029Z,-0.40
2023-01-26T20:31:49.430Z,-0.66
2023-01-26T20:36:54.611Z,-0.43
2023-01-26T20:41:56.256Z,-0.40
2023-01-26T20:46:58.750Z,-0.21
2023-01-26T20:52:00.490Z,-0.12
2023-01-26T20:57:03.707Z,-0.18
2023-01-26T21:02:05.340Z,-0.40
2023-01-26T21:07:08.019Z,-0.20
2023-01-26T21:12:09.646Z,-0.45
2023-01-26T21:17:11.238Z,-0.31
2023-01-26T21:22:12.846Z,-0.10
2023-01-26T21:27:14.499Z,-0.31
2023-01-26T21:32:16.104Z,-0.32
2023-01-26T21:37:17.793Z,-0.22
2023-01-26T21:42:19.452Z,-0.11
2023-01-26T21:47:21.125Z,-0.13
2023-01-26T21:52:41.137Z,-0.11
2023-01-26T21:58:01.339Z,-0.30
2023-01-26T22:03:02.975Z,-0.27
2023-01-26T22:08:05.261Z,-0.12
2023-01-26T22:13:08.008Z,-0.19
2023-01-26T22:18:09.629Z,-0.03
2023-01-26T22:23:11.583Z,-0.05
2023-01-26T22:28:13.320Z,-0.24
2023-01-26T22:33:15.044Z,0.13
2023-01-26T22:38:16.758Z,0.03
2023-01-26T22:43:18.385Z,-0.16
2023-01-26T22:48:21.143Z,-0.33
2023-01-26T22:53:22.769Z,-0.30
2023-01-26T22:58:24.427Z,-0.33
2023-01-26T23:03:26.008Z,-0.17
2023-01-26T23:08:29.175Z,-0.16
2023-01-26T23:13:31.271Z,-0.34
2023-01-26T23:18:33.273Z,-0.21
2023-01-26T23:23:34.993Z,-0.30
2023-01-26T23:28:39.199Z,-0.27
2023-01-26T23:33:41.151Z,-0.35
2023-01-26T23:38:44.647Z,-0.32
2023-01-26T23:43:46.520Z,-0.21
2023-01-26T23:48:48.111Z,-0.22
2023-01-26T23:53:49.743Z,-0.19
2023-01-26T23:58:51.331Z,-0.32
